Time;durP1;ratioP1;P1;durP2;ratioP2;P2;SDS_P1;SDS_P2;PMS_P1;PMS_P2;Temp;Humidity;BMP_temperature;BMP_pressure;BME280_temperature;BME280_humidity;BME280_pressure;Samples;Min_cycle;Max_cycle;Signal;HPM_P1;HPM_P2
2023/06/26 00:01:33;;;;;;;14.73;5.40;;;;;;;;;;5054286;28;20108;-59
2023/06/26 00:04:00;;;;;;;10.27;5.55;;;;;;;;;;5054235;28;20021;-59
2023/06/26 00:06:26;;;;;;;7.38;5.07;;;;;;;;;;5054270;28;20387;-60
2023/06/26 00:08:53;;;;;;;13.57;5.57;;;;;;;;;;5053862;28;20049;-59
2023/06/26 00:11:20;;;;;;;11.50;5.78;;;;;;;;;;5053949;28;20032;-59
2023/06/26 00:13:45;;;;;;;10.77;4.95;;;;;;;;;;5053947;28;20126;-60
2023/06/26 00:16:11;;;;;;;13.15;5.65;;;;;;;;;;5053555;28;20476;-60
2023/06/26 00:18:36;;;;;;;11.23;5.28;;;;;;;;;;5053794;28;20040;-61
2023/06/26 00:21:02;;;;;;;11.82;5.20;;;;;;;;;;5051706;28;20523;-61
2023/06/26 00:23:27;;;;;;;10.98;5.68;;;;;;;;;;5052437;28;20105;-60
2023/06/26 00:25:53;;;;;;;10.60;5.28;;;;;;;;;;5052409;28;20132;-62
2023/06/26 00:28:19;;;;;;;10.77;5.13;;;;;;;;;;5051146;28;20031;-62
2023/06/26 00:30:44;;;;;;;10.40;5.30;;;;;;;;;;5051567;28;20528;-62
2023/06/26 00:33:10;;;;;;;10.15;4.95;;;;;;;;;;5051584;28;20048;-61
2023/06/26 00:35:35;;;;;;;10.70;5.78;;;;;;;;;;5051154;28;20025;-62
2023/06/26 00:38:01;;;;;;;11.73;5.25;;;;;;;;;;5050881;28;20697;-60
2023/06/26 00:40:27;;;;;;;13.35;5.63;;;;;;;;;;5038260;28;20362;-62
2023/06/26 00:42:53;;;;;;;12.43;5.40;;;;;;;;;;5050224;28;20048;-60
2023/06/26 00:45:19;;;;;;;12.77;5.63;;;;;;;;;;5051031;28;20028;-62
2023/06/26 00:47:44;;;;;;;11.18;5.70;;;;;;;;;;5051129;28;20029;-61
2023/06/26 00:50:10;;;;;;;10.60;5.28;;;;;;;;;;5051931;28;20495;-62
2023/06/26 00:52:37;;;;;;;14.60;5.60;;;;;;;;;;5050912;28;20025;-63
2023/06/26 00:55:03;;;;;;;11.27;5.57;;;;;;;;;;5052174;28;20017;-63
2023/06/26 00:57:30;;;;;;;9.90;5.43;;;;;;;;;;5050555;28;20120;-60
2023/06/26 00:59:56;;;;;;;9.48;5.43;;;;;;;;;;5051816;28;20096;-60
2023/06/26 01:02:22;;;;;;;9.98;4.90;;;;;;;;;;5049942;28;20543;-60
2023/06/26 01:04:49;;;;;;;12.55;5.88;;;;;;;;;;5051100;28;20048;-61
2023/06/26 01:07:18;;;;;;;17.90;5.40;;;;;;;;;;5050988;28;20064;-60
2023/06/26 01:09:46;;;;;;;11.27;5.20;;;;;;;;;;5048820;28;20045;-60
2023/06/26 01:12:12;;;;;;;13.70;5.00;;;;;;;;;;5050581;28;20017;-60
2023/06/26 01:14:37;;;;;;;9.55;5.20;;;;;;;;;;5050660;28;20036;-62
2023/06/26 01:17:03;;;;;;;9.85;5.22;;;;;;;;;;5050601;28;20069;-63
2023/06/26 01:19:31;;;;;;;14.88;5.13;;;;;;;;;;5050613;28;20021;-61
2023/06/26 01:22:14;;;;;;;9.23;5.20;;;;;;;;;;5051084;28;20036;-62
2023/06/26 01:24:45;;;;;;;12.70;5.30;;;;;;;;;;5052397;28;20032;-62
2023/06/26 01:27:12;;;;;;;10.00;5.25;;;;;;;;;;5052433;28;20036;-59
2023/06/26 01:29:38;;;;;;;9.25;4.63;;;;;;;;;;5052390;28;20029;-60
2023/06/26 01:32:05;;;;;;;12.10;5.28;;;;;;;;;;5052223;28;20040;-60
2023/06/26 01:34:30;;;;;;;11.60;5.07;;;;;;;;;;5052322;28;20031;-62
2023/06/26 01:36:56;;;;;;;7.28;4.35;;;;;;;;;;5052574;28;20025;-62
2023/06/26 01:39:21;;;;;;;11.85;4.80;;;;;;;;;;5052197;28;20029;-62
2023/06/26 01:41:47;;;;;;;10.18;4.63;;;;;;;;;;5052362;28;20029;-60
2023/06/26 01:44:34;;;;;;;10.88;5.00;;;;;;;;;;5052519;28;20021;-62
2023/06/26 01:47:05;;;;;;;8.57;4.78;;;;;;;;;;5052204;28;20044;-62
2023/06/26 01:49:56;;;;;;;9.02;5.18;;;;;;;;;;5034570;28;20024;-62
2023/06/26 01:52:28;;;;;;;9.63;4.57;;;;;;;;;;5052287;28;20040;-63
2023/06/26 01:55:15;;;;;;;7.30;4.70;;;;;;;;;;5052037;28;20608;-61
2023/06/26 01:57:42;;;;;;;9.05;4.68;;;;;;;;;;5052223;28;20409;-62
2023/06/26 02:00:11;;;;;;;8.10;4.43;;;;;;;;;;5054414;28;20035;-60
2023/06/26 02:02:36;;;;;;;9.93;4.65;;;;;;;;;;5056262;28;20052;-62
2023/06/26 02:05:02;;;;;;;8.02;4.68;;;;;;;;;;5056463;28;20052;-61
2023/06/26 02:07:28;;;;;;;8.75;4.85;;;;;;;;;;5056124;28;20021;-60
2023/06/26 02:09:54;;;;;;;9.15;4.35;;;;;;;;;;5021731;28;20140;-62
2023/06/26 02:12:19;;;;;;;9.85;4.50;;;;;;;;;;5056205;28;20087;-61
2023/06/26 02:14:45;;;;;;;10.20;4.72;;;;;;;;;;5055890;28;20478;-61
2023/06/26 02:17:10;;;;;;;9.15;4.95;;;;;;;;;;5056047;28;20029;-60
2023/06/26 02:19:36;;;;;;;8.15;4.82;;;;;;;;;;5056016;28;20025;-61
2023/06/26 02:22:01;;;;;;;8.00;4.68;;;;;;;;;;5056365;28;20029;-61
2023/06/26 02:24:29;;;;;;;11.23;5.00;;;;;;;;;;5056076;28;20465;-60
2023/06/26 02:26:57;;;;;;;12.30;5.15;;;;;;;;;;5055721;28;20029;-62
2023/06/26 02:29:22;;;;;;;5.90;4.30;;;;;;;;;;5055649;28;20065;-62
2023/06/26 02:31:48;;;;;;;6.80;4.50;;;;;;;;;;5055938;28;20063;-61
2023/06/26 02:34:14;;;;;;;7.18;4.30;;;;;;;;;;5055651;28;20029;-62
2023/06/26 02:36:39;;;;;;;9.98;4.82;;;;;;;;;;5055558;28;20079;-61
2023/06/26 02:39:05;;;;;;;9.00;4.50;;;;;;;;;;5055553;28;20032;-62
2023/06/26 02:41:31;;;;;;;6.53;4.18;;;;;;;;;;5055942;28;20029;-62
2023/06/26 02:43:57;;;;;;;5.88;4.40;;;;;;;;;;5055771;28;20025;-61
2023/06/26 02:46:22;;;;;;;7.07;4.20;;;;;;;;;;5055399;28;20112;-60
2023/06/26 02:48:47;;;;;;;7.55;4.45;;;;;;;;;;5055423;28;20070;-60
2023/06/26 02:51:13;;;;;;;8.23;4.28;;;;;;;;;;5055175;28;20377;-61
2023/06/26 02:53:39;;;;;;;5.90;4.72;;;;;;;;;;5055564;28;20029;-59
2023/06/26 02:56:04;;;;;;;7.57;4.20;;;;;;;;;;5055203;28;20029;-61
2023/06/26 02:58:30;;;;;;;6.63;4.57;;;;;;;;;;5055086;28;20036;-61
2023/06/26 03:00:56;;;;;;;7.18;4.28;;;;;;;;;;5055177;28;20032;-62
2023/06/26 03:03:21;;;;;;;7.65;4.35;;;;;;;;;;5055197;28;20035;-59
2023/06/26 03:05:47;;;;;;;9.35;4.43;;;;;;;;;;5055135;28;20033;-63
2023/06/26 03:08:12;;;;;;;7.20;4.28;;;;;;;;;;5054808;28;20033;-59
2023/06/26 03:10:38;;;;;;;7.00;4.45;;;;;;;;;;5054106;28;20041;-62
2023/06/26 03:13:04;;;;;;;6.65;4.30;;;;;;;;;;5054482;28;20033;-60
2023/06/26 03:15:29;;;;;;;7.90;4.22;;;;;;;;;;5054889;28;20049;-61
2023/06/26 03:17:55;;;;;;;6.35;4.25;;;;;;;;;;5054913;28;20021;-61
2023/06/26 03:20:20;;;;;;;6.72;4.18;;;;;;;;;;5054838;28;20021;-60
2023/06/26 03:22:46;;;;;;;5.80;4.15;;;;;;;;;;5055075;28;20100;-61
2023/06/26 03:25:11;;;;;;;7.70;4.30;;;;;;;;;;5054619;28;20025;-60
2023/06/26 03:27:36;;;;;;;7.25;4.45;;;;;;;;;;5054711;28;20032;-62
2023/06/26 03:30:02;;;;;;;6.78;4.28;;;;;;;;;;5054875;28;20017;-61
2023/06/26 03:32:28;;;;;;;11.20;4.50;;;;;;;;;;5054500;28;20110;-62
2023/06/26 03:34:53;;;;;;;6.63;4.30;;;;;;;;;;5054511;28;20036;-62
2023/06/26 03:37:19;;;;;;;5.45;3.75;;;;;;;;;;5054531;28;20028;-62
2023/06/26 03:39:44;;;;;;;9.27;3.90;;;;;;;;;;5054359;28;20033;-62
2023/06/26 03:42:10;;;;;;;9.27;4.20;;;;;;;;;;5054691;28;20029;-61
2023/06/26 03:44:39;;;;;;;5.40;3.92;;;;;;;;;;5054673;28;20029;-61
2023/06/26 03:47:05;;;;;;;9.90;4.47;;;;;;;;;;5054274;28;20108;-60
2023/06/26 03:49:30;;;;;;;7.07;4.60;;;;;;;;;;5054543;28;20349;-62
2023/06/26 03:51:56;;;;;;;6.40;4.22;;;;;;;;;;5054174;28;20033;-61
2023/06/26 03:54:21;;;;;;;5.72;3.90;;;;;;;;;;5054133;28;20029;-61
2023/06/26 03:56:47;;;;;;;6.15;4.10;;;;;;;;;;5054291;28;20021;-62
2023/06/26 03:59:12;;;;;;;7.80;4.15;;;;;;;;;;5054084;28;20056;-63
2023/06/26 04:01:38;;;;;;;5.82;4.15;;;;;;;;;;5054061;28;20029;-61
2023/06/26 04:04:03;;;;;;;6.57;4.03;;;;;;;;;;5053967;28;20025;-62
2023/06/26 04:06:31;;;;;;;9.23;4.70;;;;;;;;;;5054191;28;20071;-63
2023/06/26 04:08:57;;;;;;;8.80;4.68;;;;;;;;;;5053977;28;20098;-61
2023/06/26 04:11:22;;;;;;;7.03;4.20;;;;;;;;;;5053866;28;20037;-62
2023/06/26 04:13:48;;;;;;;8.07;4.20;;;;;;;;;;5053884;28;20055;-62
2023/06/26 04:16:14;;;;;;;6.07;4.47;;;;;;;;;;5053707;28;20025;-63
2023/06/26 04:18:39;;;;;;;6.72;4.50;;;;;;;;;;5053741;28;20032;-64
2023/06/26 04:21:11;;;;;;;5.00;3.90;;;;;;;;;;5053661;28;20028;-63
2023/06/26 04:23:37;;;;;;;5.57;4.00;;;;;;;;;;5053589;28;20025;-61
2023/06/26 04:26:04;;;;;;;5.78;4.25;;;;;;;;;;5053623;28;20037;-64
2023/06/26 04:28:31;;;;;;;5.22;4.25;;;;;;;;;;5053492;28;20021;-63
2023/06/26 04:30:57;;;;;;;4.38;3.90;;;;;;;;;;5053448;28;20024;-60
2023/06/26 04:33:24;;;;;;;6.35;4.43;;;;;;;;;;5053691;28;20044;-61
2023/06/26 04:35:53;;;;;;;7.93;4.75;;;;;;;;;;5053666;28;20025;-60
2023/06/26 04:38:19;;;;;;;7.35;4.40;;;;;;;;;;5053283;28;20231;-60
2023/06/26 04:40:45;;;;;;;6.10;4.45;;;;;;;;;;5053233;28;20436;-61
2023/06/26 04:43:11;;;;;;;5.70;4.28;;;;;;;;;;5053321;28;20033;-63
2023/06/26 04:45:37;;;;;;;5.55;4.05;;;;;;;;;;5053385;28;20230;-62
2023/06/26 04:48:03;;;;;;;10.55;4.40;;;;;;;;;;5053208;28;20381;-61
2023/06/26 04:50:30;;;;;;;5.45;4.07;;;;;;;;;;5053187;28;20543;-62
2023/06/26 04:52:56;;;;;;;7.68;4.32;;;;;;;;;;5053005;28;20029;-60
2023/06/26 04:55:24;;;;;;;4.95;4.13;;;;;;;;;;5053311;28;20032;-60
2023/06/26 04:57:49;;;;;;;5.40;4.47;;;;;;;;;;5052975;28;20036;-63
2023/06/26 05:00:15;;;;;;;6.88;4.80;;;;;;;;;;5053174;28;20107;-60
2023/06/26 05:02:41;;;;;;;7.72;4.20;;;;;;;;;;5053120;28;20025;-61
2023/06/26 05:05:07;;;;;;;4.63;4.03;;;;;;;;;;5053041;28;20054;-60
2023/06/26 05:07:33;;;;;;;5.45;4.07;;;;;;;;;;5052996;28;20547;-60
2023/06/26 05:09:58;;;;;;;10.27;4.28;;;;;;;;;;5052694;28;20048;-60
2023/06/26 05:12:24;;;;;;;6.88;4.40;;;;;;;;;;5052892;28;20112;-60
2023/06/26 05:14:53;;;;;;;6.82;4.40;;;;;;;;;;5052687;28;20496;-60
2023/06/26 05:17:18;;;;;;;5.15;4.25;;;;;;;;;;5052700;28;20390;-61
2023/06/26 05:19:44;;;;;;;7.93;4.60;;;;;;;;;;5052589;28;20029;-62
2023/06/26 05:22:10;;;;;;;5.45;4.63;;;;;;;;;;5052630;28;20029;-60
2023/06/26 05:24:37;;;;;;;12.65;4.85;;;;;;;;;;5035242;28;20040;-63
2023/06/26 05:27:03;;;;;;;12.13;4.40;;;;;;;;;;5052455;28;20462;-60
2023/06/26 05:29:30;;;;;;;5.43;4.22;;;;;;;;;;5052393;28;20037;-60
2023/06/26 05:31:56;;;;;;;8.05;5.00;;;;;;;;;;5052640;28;20409;-62
2023/06/26 05:34:23;;;;;;;6.78;4.90;;;;;;;;;;5051726;28;20035;-60
2023/06/26 05:36:57;;;;;;;6.22;4.55;;;;;;;;;;5052312;28;20481;-60
2023/06/26 05:39:23;;;;;;;7.60;4.43;;;;;;;;;;5052318;28;20029;-62
2023/06/26 05:41:49;;;;;;;6.18;4.75;;;;;;;;;;5052321;28;20020;-61
2023/06/26 05:44:14;;;;;;;6.93;4.40;;;;;;;;;;5052346;28;20056;-60
2023/06/26 05:46:40;;;;;;;6.72;4.47;;;;;;;;;;5052565;28;20041;-60
2023/06/26 05:49:05;;;;;;;9.20;4.38;;;;;;;;;;5052105;28;20470;-60
2023/06/26 05:51:31;;;;;;;7.97;4.30;;;;;;;;;;5052100;28;20032;-60
2023/06/26 05:53:57;;;;;;;5.20;4.28;;;;;;;;;;5052491;28;20036;-61
2023/06/26 05:56:23;;;;;;;5.57;3.85;;;;;;;;;;5052140;28;20398;-60
2023/06/26 05:58:50;;;;;;;5.82;4.13;;;;;;;;;;5052484;28;20090;-60
2023/06/26 06:01:16;;;;;;;4.63;4.22;;;;;;;;;;5052106;28;20021;-60
2023/06/26 06:03:41;;;;;;;7.32;4.43;;;;;;;;;;5052332;28;20025;-64
2023/06/26 06:06:07;;;;;;;6.35;4.45;;;;;;;;;;5052110;28;20527;-60
2023/06/26 06:08:32;;;;;;;6.78;4.32;;;;;;;;;;5049995;28;20033;-61
2023/06/26 06:11:01;;;;;;;10.43;4.90;;;;;;;;;;5051961;28;20032;-62
2023/06/26 06:13:28;;;;;;;6.18;4.40;;;;;;;;;;5051936;28;20124;-61
2023/06/26 06:15:53;;;;;;;7.05;4.45;;;;;;;;;;5050537;28;20040;-62
2023/06/26 06:18:19;;;;;;;6.00;4.38;;;;;;;;;;5050305;28;20029;-61
2023/06/26 06:20:44;;;;;;;9.18;4.40;;;;;;;;;;5050419;28;20033;-61
2023/06/26 06:23:10;;;;;;;5.85;4.38;;;;;;;;;;5049543;28;20051;-62
2023/06/26 06:25:36;;;;;;;9.27;4.50;;;;;;;;;;5050177;28;20523;-61
2023/06/26 06:28:01;;;;;;;5.95;4.30;;;;;;;;;;5049022;28;20036;-61
2023/06/26 06:30:27;;;;;;;7.80;4.25;;;;;;;;;;5049990;28;20092;-61
2023/06/26 06:32:54;;;;;;;6.22;3.63;;;;;;;;;;5049702;28;20041;-61
2023/06/26 06:35:20;;;;;;;4.38;3.65;;;;;;;;;;5048067;28;20054;-61
2023/06/26 06:37:45;;;;;;;7.68;4.15;;;;;;;;;;5047545;28;20029;-62
2023/06/26 06:40:12;;;;;;;7.20;3.95;;;;;;;;;;5047334;28;20036;-64
2023/06/26 06:42:37;;;;;;;4.28;3.67;;;;;;;;;;5048657;28;20041;-62
2023/06/26 06:45:04;;;;;;;6.25;3.85;;;;;;;;;;5048641;28;20112;-62
2023/06/26 06:47:31;;;;;;;7.90;4.40;;;;;;;;;;5052327;28;20397;-61
2023/06/26 06:49:57;;;;;;;7.97;4.28;;;;;;;;;;5052961;28;20032;-61
2023/06/26 06:52:22;;;;;;;7.22;4.40;;;;;;;;;;5053134;28;20033;-61
2023/06/26 06:55:05;;;;;;;3.92;3.53;;;;;;;;;;5053509;28;20025;-61
2023/06/26 06:57:30;;;;;;;4.80;3.67;;;;;;;;;;5053726;28;20422;-61
2023/06/26 06:59:56;;;;;;;6.88;4.15;;;;;;;;;;5053697;28;20032;-61
2023/06/26 07:02:22;;;;;;;4.38;3.50;;;;;;;;;;5052193;28;20032;-62
2023/06/26 07:04:47;;;;;;;5.50;3.67;;;;;;;;;;5053625;28;20041;-63
2023/06/26 07:07:15;;;;;;;4.45;3.95;;;;;;;;;;5053637;28;20036;-61
2023/06/26 07:09:41;;;;;;;6.15;3.78;;;;;;;;;;5053370;28;20057;-62
2023/06/26 07:12:07;;;;;;;4.75;4.00;;;;;;;;;;5053538;28;20037;-61
2023/06/26 07:14:33;;;;;;;4.07;3.65;;;;;;;;;;5053598;28;20173;-62
2023/06/26 07:16:58;;;;;;;5.85;4.10;;;;;;;;;;5052783;28;20021;-62
2023/06/26 07:19:24;;;;;;;5.25;3.67;;;;;;;;;;5053275;28;20087;-61
2023/06/26 07:21:50;;;;;;;7.70;3.95;;;;;;;;;;5053429;28;20477;-62
2023/06/26 07:24:15;;;;;;;6.32;3.78;;;;;;;;;;5053153;28;20021;-61
2023/06/26 07:26:41;;;;;;;10.32;4.50;;;;;;;;;;5053128;28;20047;-65
2023/06/26 07:29:07;;;;;;;8.35;4.07;;;;;;;;;;5053254;28;20052;-62
2023/06/26 07:31:32;;;;;;;4.57;4.03;;;;;;;;;;5053345;28;20444;-62
2023/06/26 07:33:58;;;;;;;4.18;3.78;;;;;;;;;;5052987;28;20051;-61
2023/06/26 07:36:23;;;;;;;4.28;3.60;;;;;;;;;;5052852;28;20032;-62
2023/06/26 07:38:49;;;;;;;5.00;3.67;;;;;;;;;;5053163;28;20017;-62
2023/06/26 07:41:14;;;;;;;5.05;3.72;;;;;;;;;;5051524;28;20496;-62
2023/06/26 07:43:40;;;;;;;4.57;4.05;;;;;;;;;;5052739;28;20025;-61
2023/06/26 07:46:06;;;;;;;4.63;3.80;;;;;;;;;;5052117;28;20159;-61
2023/06/26 07:48:31;;;;;;;6.88;3.85;;;;;;;;;;5051153;28;20029;-61
2023/06/26 07:50:58;;;;;;;5.25;3.75;;;;;;;;;;5052845;28;20032;-62
2023/06/26 07:53:23;;;;;;;5.72;3.95;;;;;;;;;;5052600;28;20171;-62
2023/06/26 07:55:49;;;;;;;4.93;3.78;;;;;;;;;;5052550;28;20112;-61
2023/06/26 07:58:14;;;;;;;4.30;3.75;;;;;;;;;;5052001;28;20029;-60
2023/06/26 08:00:40;;;;;;;6.05;4.03;;;;;;;;;;5052690;28;20044;-63
2023/06/26 08:03:06;;;;;;;6.45;3.63;;;;;;;;;;5052364;28;20029;-66
2023/06/26 08:05:32;;;;;;;4.78;3.72;;;;;;;;;;5034467;28;20087;-63
2023/06/26 08:07:57;;;;;;;7.68;4.45;;;;;;;;;;5052394;28;20043;-63
2023/06/26 08:10:23;;;;;;;6.75;3.55;;;;;;;;;;5050555;28;20063;-62
2023/06/26 08:12:50;;;;;;;8.20;4.20;;;;;;;;;;5050775;28;20131;-62
2023/06/26 08:15:16;;;;;;;7.55;4.30;;;;;;;;;;5051869;28;20115;-62
2023/06/26 08:17:41;;;;;;;15.18;4.82;;;;;;;;;;5052333;28;20100;-61
2023/06/26 08:20:10;;;;;;;5.90;4.00;;;;;;;;;;5052422;28;20409;-62
2023/06/26 08:22:36;;;;;;;5.53;3.65;;;;;;;;;;5052119;28;20029;-61
2023/06/26 08:25:03;;;;;;;3.65;3.22;;;;;;;;;;5052099;28;20079;-61
2023/06/26 08:27:28;;;;;;;4.32;3.60;;;;;;;;;;5051936;28;20029;-61
2023/06/26 08:29:54;;;;;;;5.18;3.90;;;;;;;;;;5052219;28;20094;-62
2023/06/26 08:32:19;;;;;;;7.72;4.28;;;;;;;;;;5051744;28;20382;-62
2023/06/26 08:34:45;;;;;;;6.65;3.70;;;;;;;;;;5051873;28;20032;-61
2023/06/26 08:37:10;;;;;;;5.90;3.50;;;;;;;;;;5051998;28;20028;-61
2023/06/26 08:39:36;;;;;;;7.78;4.10;;;;;;;;;;5051590;28;20048;-60
2023/06/26 08:42:02;;;;;;;7.05;3.83;;;;;;;;;;5051703;28;20021;-61
2023/06/26 08:44:27;;;;;;;5.25;3.72;;;;;;;;;;5051898;28;20029;-61
2023/06/26 08:46:53;;;;;;;4.60;3.63;;;;;;;;;;5051984;28;20021;-62
2023/06/26 08:49:28;;;;;;;4.07;3.50;;;;;;;;;;5051680;28;20618;-62
2023/06/26 08:52:02;;;;;;;4.07;3.40;;;;;;;;;;5051373;28;20112;-61
2023/06/26 08:54:36;;;;;;;5.32;3.78;;;;;;;;;;5033366;28;20037;-61
2023/06/26 08:57:03;;;;;;;6.00;3.83;;;;;;;;;;5051272;28;20033;-66
2023/06/26 08:59:29;;;;;;;4.70;3.55;;;;;;;;;;5051315;28;20032;-62
2023/06/26 09:01:54;;;;;;;5.85;3.85;;;;;;;;;;5051648;28;20033;-61
2023/06/26 09:04:21;;;;;;;6.05;3.53;;;;;;;;;;5051273;28;20482;-61
2023/06/26 09:06:46;;;;;;;5.63;3.72;;;;;;;;;;5051105;28;20040;-62
2023/06/26 09:09:12;;;;;;;6.25;3.80;;;;;;;;;;5050373;28;20045;-62
2023/06/26 09:11:38;;;;;;;6.68;3.60;;;;;;;;;;5051015;28;20072;-61
2023/06/26 09:14:07;;;;;;;8.35;3.55;;;;;;;;;;5050988;28;20028;-61
2023/06/26 09:16:40;;;;;;;5.38;4.07;;;;;;;;;;5050999;28;20035;-62
2023/06/26 09:19:13;;;;;;;5.55;3.40;;;;;;;;;;5051307;28;20120;-62
2023/06/26 09:21:42;;;;;;;9.15;3.63;;;;;;;;;;5050859;28;20033;-61
2023/06/26 09:24:10;;;;;;;5.85;3.80;;;;;;;;;;5049764;28;20028;-60
2023/06/26 09:26:37;;;;;;;5.82;3.92;;;;;;;;;;5051260;28;20131;-61
2023/06/26 09:29:04;;;;;;;5.32;3.70;;;;;;;;;;5050705;28;20035;-61
2023/06/26 09:31:30;;;;;;;7.85;3.65;;;;;;;;;;5046498;28;20051;-61
2023/06/26 09:33:59;;;;;;;5.40;3.70;;;;;;;;;;5048972;28;20100;-61
2023/06/26 09:36:28;;;;;;;9.45;4.03;;;;;;;;;;5047108;28;20691;-60
2023/06/26 09:38:54;;;;;;;5.43;3.58;;;;;;;;;;5049431;28;20032;-60
2023/06/26 09:41:20;;;;;;;5.00;3.58;;;;;;;;;;5050946;28;20033;-61
2023/06/26 09:43:50;;;;;;;5.13;3.72;;;;;;;;;;5049135;28;20416;-62
2023/06/26 09:46:26;;;;;;;5.75;3.55;;;;;;;;;;5049077;28;20032;-60
2023/06/26 09:49:04;;;;;;;4.18;3.38;;;;;;;;;;5047938;28;20028;-59
2023/06/26 09:51:41;;;;;;;6.93;3.75;;;;;;;;;;5048697;28;20024;-60
2023/06/26 09:54:09;;;;;;;4.65;3.85;;;;;;;;;;5049451;28;20033;-60
2023/06/26 09:56:34;;;;;;;5.88;3.88;;;;;;;;;;5049004;28;20029;-64
2023/06/26 09:59:02;;;;;;;4.60;3.70;;;;;;;;;;5032628;28;20029;-60
2023/06/26 10:01:29;;;;;;;8.05;3.67;;;;;;;;;;5048434;28;20036;-60
2023/06/26 10:03:58;;;;;;;7.45;3.78;;;;;;;;;;5050451;28;20032;-60
2023/06/26 10:06:28;;;;;;;6.07;3.72;;;;;;;;;;5050750;28;20029;-60
2023/06/26 10:08:56;;;;;;;6.18;3.78;;;;;;;;;;5050326;28;20107;-60
2023/06/26 10:11:22;;;;;;;7.43;3.85;;;;;;;;;;5047926;28;20053;-60
2023/06/26 10:13:51;;;;;;;5.50;3.22;;;;;;;;;;5048643;28;20508;-60
2023/06/26 10:16:24;;;;;;;5.53;3.55;;;;;;;;;;5050380;28;20500;-60
2023/06/26 10:18:54;;;;;;;8.73;3.95;;;;;;;;;;5048060;28;20075;-60
2023/06/26 10:21:23;;;;;;;3.80;3.30;;;;;;;;;;5052167;28;20393;-60
2023/06/26 10:23:51;;;;;;;4.38;3.47;;;;;;;;;;5054370;28;20040;-60
2023/06/26 10:26:21;;;;;;;4.15;3.65;;;;;;;;;;5054612;28;20485;-61
2023/06/26 10:28:51;;;;;;;5.35;3.38;;;;;;;;;;5054564;28;20033;-60
2023/06/26 10:31:23;;;;;;;5.93;3.42;;;;;;;;;;5054641;28;20021;-60
2023/06/26 10:33:50;;;;;;;6.13;3.65;;;;;;;;;;5067134;28;20044;-60
2023/06/26 10:36:21;;;;;;;6.40;3.55;;;;;;;;;;5054015;28;20032;-60
2023/06/26 10:38:56;;;;;;;5.68;3.47;;;;;;;;;;5052765;28;20037;-60
2023/06/26 10:41:23;;;;;;;4.35;3.63;;;;;;;;;;5053885;28;20540;-60
2023/06/26 10:43:51;;;;;;;7.55;3.63;;;;;;;;;;5053708;28;20208;-60
2023/06/26 10:46:19;;;;;;;7.07;3.78;;;;;;;;;;5035317;28;20156;-59
2023/06/26 10:49:01;;;;;;;6.35;3.90;;;;;;;;;;5035299;28;20048;-59
2023/06/26 10:51:27;;;;;;;6.10;3.60;;;;;;;;;;5053183;28;20033;-59
2023/06/26 10:53:55;;;;;;;4.80;3.45;;;;;;;;;;5053600;28;20040;-60
2023/06/26 10:56:20;;;;;;;8.05;3.70;;;;;;;;;;5052414;28;20226;-59
2023/06/26 10:58:48;;;;;;;3.90;3.20;;;;;;;;;;5053954;28;20032;-60
2023/06/26 11:01:20;;;;;;;4.20;3.40;;;;;;;;;;5053500;28;20026;-59
2023/06/26 11:03:50;;;;;;;5.18;4.00;;;;;;;;;;5053883;28;20033;-59
2023/06/26 11:06:21;;;;;;;4.93;3.63;;;;;;;;;;5053294;28;20382;-59
2023/06/26 11:08:47;;;;;;;4.45;3.22;;;;;;;;;;5035047;28;20053;-59
2023/06/26 11:11:13;;;;;;;4.82;3.58;;;;;;;;;;5053006;28;20090;-59
2023/06/26 11:13:40;;;;;;;5.32;3.20;;;;;;;;;;5053364;28;20037;-59
2023/06/26 11:16:06;;;;;;;5.32;3.45;;;;;;;;;;5053009;28;20536;-59
2023/06/26 11:18:32;;;;;;;4.03;3.63;;;;;;;;;;5052424;28;20037;-60
2023/06/26 11:21:08;;;;;;;4.35;3.45;;;;;;;;;;5053217;28;20040;-59
2023/06/26 11:23:35;;;;;;;5.78;3.35;;;;;;;;;;5053098;28;20039;-59
2023/06/26 11:26:14;;;;;;;7.13;3.55;;;;;;;;;;5051670;28;20151;-59
2023/06/26 11:28:47;;;;;;;5.90;3.67;;;;;;;;;;5051530;28;20028;-61
2023/06/26 11:31:30;;;;;;;5.63;3.83;;;;;;;;;;5051495;28;20072;-60
2023/06/26 11:33:58;;;;;;;5.10;3.72;;;;;;;;;;5051186;28;20024;-59
2023/06/26 11:36:25;;;;;;;5.20;3.50;;;;;;;;;;5052167;28;20083;-60
2023/06/26 11:39:02;;;;;;;4.00;3.45;;;;;;;;;;5052203;28;20111;-59
2023/06/26 11:41:30;;;;;;;4.13;3.60;;;;;;;;;;5052661;28;20031;-60
2023/06/26 11:43:56;;;;;;;7.85;3.88;;;;;;;;;;5051479;28;20013;-59
2023/06/26 11:46:22;;;;;;;6.18;3.35;;;;;;;;;;5049877;28;20048;-59
2023/06/26 11:48:50;;;;;;;4.75;3.30;;;;;;;;;;5052664;28;20040;-59
2023/06/26 11:51:16;;;;;;;8.00;3.80;;;;;;;;;;5050499;28;20083;-61
2023/06/26 11:53:43;;;;;;;5.43;3.60;;;;;;;;;;5052846;28;20428;-58
2023/06/26 11:56:13;;;;;;;9.40;3.45;;;;;;;;;;5051555;28;20025;-61
2023/06/26 11:59:04;;;;;;;5.43;3.55;;;;;;;;;;5050331;28;20146;-58
2023/06/26 12:01:41;;;;;;;6.35;3.67;;;;;;;;;;5052468;28;20029;-59
2023/06/26 12:04:08;;;;;;;5.18;3.50;;;;;;;;;;5052625;28;20396;-59
2023/06/26 12:06:35;;;;;;;3.65;3.20;;;;;;;;;;5052343;28;20024;-58
2023/06/26 12:09:06;;;;;;;5.25;3.20;;;;;;;;;;5051101;28;20048;-63
2023/06/26 12:11:33;;;;;;;3.80;3.03;;;;;;;;;;5052441;28;20167;-60
2023/06/26 12:13:59;;;;;;;5.78;3.50;;;;;;;;;;5052252;28;20033;-62
2023/06/26 12:16:25;;;;;;;4.35;3.30;;;;;;;;;;5050631;28;20522;-60
2023/06/26 12:18:51;;;;;;;6.70;3.65;;;;;;;;;;5052101;28;20060;-59
2023/06/26 12:21:40;;;;;;;3.53;3.22;;;;;;;;;;5052085;28;20420;-60
2023/06/26 12:24:06;;;;;;;4.68;3.58;;;;;;;;;;5052088;28;20378;-60
2023/06/26 12:26:38;;;;;;;3.60;3.30;;;;;;;;;;5052493;28;20033;-59
2023/06/26 12:29:08;;;;;;;4.63;3.53;;;;;;;;;;5052105;28;20025;-60
2023/06/26 12:31:34;;;;;;;5.47;3.20;;;;;;;;;;5051868;28;20078;-59
2023/06/26 12:34:01;;;;;;;3.83;3.42;;;;;;;;;;5052247;28;20378;-59
2023/06/26 12:36:26;;;;;;;4.90;3.13;;;;;;;;;;5051665;28;20074;-60
2023/06/26 12:38:55;;;;;;;4.35;3.50;;;;;;;;;;5051522;28;20024;-60
2023/06/26 12:41:24;;;;;;;4.57;3.30;;;;;;;;;;5051715;28;20096;-59
2023/06/26 12:43:55;;;;;;;4.20;3.40;;;;;;;;;;5051639;28;20024;-59
2023/06/26 12:46:33;;;;;;;5.70;3.33;;;;;;;;;;5051765;28;20377;-61
2023/06/26 12:48:59;;;;;;;4.07;3.05;;;;;;;;;;5051460;28;20033;-59
2023/06/26 12:51:26;;;;;;;4.22;3.53;;;;;;;;;;5066716;28;20736;-59
2023/06/26 12:53:52;;;;;;;6.32;3.50;;;;;;;;;;5050140;28;20017;-60
2023/06/26 12:56:18;;;;;;;4.22;3.83;;;;;;;;;;5051470;28;20385;-61
2023/06/26 12:58:43;;;;;;;3.53;3.03;;;;;;;;;;5048212;28;20470;-59
2023/06/26 13:01:14;;;;;;;3.47;3.15;;;;;;;;;;5051693;28;20033;-59
2023/06/26 13:03:40;;;;;;;4.30;2.85;;;;;;;;;;5051480;28;20033;-59
2023/06/26 13:06:06;;;;;;;4.50;3.08;;;;;;;;;;5051244;28;20061;-59
2023/06/26 13:08:33;;;;;;;3.53;3.22;;;;;;;;;;5051074;28;20059;-59
2023/06/26 13:10:58;;;;;;;4.13;3.72;;;;;;;;;;5051180;28;20444;-59
2023/06/26 13:13:24;;;;;;;3.90;3.30;;;;;;;;;;5049391;28;20037;-59
2023/06/26 13:15:49;;;;;;;5.82;2.90;;;;;;;;;;5049565;28;20036;-59
2023/06/26 13:18:15;;;;;;;4.38;3.45;;;;;;;;;;5051156;28;20367;-59
2023/06/26 13:20:41;;;;;;;7.22;3.35;;;;;;;;;;5051060;28;20099;-59
2023/06/26 13:23:07;;;;;;;6.43;3.40;;;;;;;;;;5051010;28;20028;-59
2023/06/26 13:25:33;;;;;;;6.63;3.33;;;;;;;;;;5050911;28;20039;-59
2023/06/26 13:27:58;;;;;;;5.45;3.25;;;;;;;;;;5050805;28;20490;-60
2023/06/26 13:30:24;;;;;;;4.70;3.03;;;;;;;;;;5050911;28;20381;-60
2023/06/26 13:32:49;;;;;;;5.80;3.05;;;;;;;;;;5050783;28;20044;-61
2023/06/26 13:35:15;;;;;;;4.25;3.40;;;;;;;;;;5050853;28;20493;-61
2023/06/26 13:37:42;;;;;;;3.38;3.03;;;;;;;;;;5050748;28;20024;-60
2023/06/26 13:40:08;;;;;;;3.85;3.22;;;;;;;;;;5051124;28;20040;-59
2023/06/26 13:42:36;;;;;;;3.20;3.00;;;;;;;;;;5050927;28;20584;-60
2023/06/26 13:45:03;;;;;;;3.83;3.05;;;;;;;;;;5050633;28;20051;-60
2023/06/26 13:47:28;;;;;;;4.25;3.20;;;;;;;;;;5050817;28;20106;-59
2023/06/26 13:49:54;;;;;;;3.53;3.20;;;;;;;;;;5050710;28;20057;-59
2023/06/26 13:52:19;;;;;;;3.50;3.20;;;;;;;;;;5050439;28;20036;-59
2023/06/26 13:54:45;;;;;;;5.10;3.22;;;;;;;;;;5048398;28;20036;-60
2023/06/26 13:57:11;;;;;;;3.80;3.28;;;;;;;;;;5049431;28;20023;-60
2023/06/26 13:59:39;;;;;;;4.32;3.05;;;;;;;;;;5049765;28;20029;-59
2023/06/26 14:02:05;;;;;;;3.92;3.08;;;;;;;;;;5049589;28;20063;-59
2023/06/26 14:04:31;;;;;;;3.33;3.03;;;;;;;;;;5049802;28;20059;-59
2023/06/26 14:06:56;;;;;;;4.05;3.10;;;;;;;;;;5049861;28;20032;-60
2023/06/26 14:09:22;;;;;;;4.63;3.20;;;;;;;;;;5050537;28;20536;-59
2023/06/26 14:11:47;;;;;;;4.70;3.33;;;;;;;;;;5050547;28;20482;-59
2023/06/26 14:14:13;;;;;;;3.53;3.20;;;;;;;;;;5032477;28;20025;-59
2023/06/26 14:16:40;;;;;;;4.05;3.28;;;;;;;;;;5049766;28;20028;-58
2023/06/26 14:19:05;;;;;;;3.33;3.03;;;;;;;;;;5048176;28;20067;-58
2023/06/26 14:21:33;;;;;;;4.88;3.35;;;;;;;;;;5050495;28;20025;-59
2023/06/26 14:23:58;;;;;;;3.72;3.17;;;;;;;;;;5050488;28;20033;-59
2023/06/26 14:26:24;;;;;;;3.75;3.28;;;;;;;;;;5050350;28;20053;-59
2023/06/26 14:28:49;;;;;;;5.45;3.17;;;;;;;;;;5049852;28;20112;-59
2023/06/26 14:31:15;;;;;;;4.13;3.50;;;;;;;;;;5049615;28;20021;-63
2023/06/26 14:33:41;;;;;;;3.70;3.25;;;;;;;;;;5049376;28;20033;-63
2023/06/26 14:36:06;;;;;;;3.83;3.15;;;;;;;;;;5049079;28;20032;-59
2023/06/26 14:38:32;;;;;;;4.72;3.42;;;;;;;;;;5050236;28;20024;-59
2023/06/26 14:40:57;;;;;;;4.18;3.20;;;;;;;;;;5050228;28;20040;-59